sensor_id;sensor_type;location;lat;lon;timestamp;P1;durP1;ratioP1;P2;durP2;ratioP2
2546;SDS011;1283;47.982;7.834;2022-07-29T00:01:02;8.07;;;4.88;;
2546;SDS011;1283;47.982;7.834;2022-07-29T00:03:29;11.98;;;5.68;;
2546;SDS011;1283;47.982;7.834;2022-07-29T00:05:55;6.63;;;4.72;;
2546;SDS011;1283;47.982;7.834;2022-07-29T00:10:48;11.98;;;5.47;;
2546;SDS011;1283;47.982;7.834;2022-07-29T00:13:16;8.65;;;5.25;;
2546;SDS011;1283;47.982;7.834;2022-07-29T00:15:42;11.55;;;5.53;;
2546;SDS011;1283;47.982;7.834;2022-07-29T00:18:08;10.48;;;6.07;;
2546;SDS011;1283;47.982;7.834;2022-07-29T00:23:01;9.10;;;5.68;;
2546;SDS011;1283;47.982;7.834;2022-07-29T00:25:27;7.30;;;5.40;;
2546;SDS011;1283;47.982;7.834;2022-07-29T00:27:54;12.30;;;5.53;;
2546;SDS011;1283;47.982;7.834;2022-07-29T00:30:22;10.55;;;5.50;;
2546;SDS011;1283;47.982;7.834;2022-07-29T00:32:48;8.25;;;5.22;;
2546;SDS011;1283;47.982;7.834;2022-07-29T00:35:15;8.25;;;5.63;;
2546;SDS011;1283;47.982;7.834;2022-07-29T00:37:59;6.32;;;5.18;;
2546;SDS011;1283;47.982;7.834;2022-07-29T00:42:52;8.85;;;5.30;;
2546;SDS011;1283;47.982;7.834;2022-07-29T00:45:19;7.22;;;5.30;;
2546;SDS011;1283;47.982;7.834;2022-07-29T00:47:48;10.77;;;5.70;;
2546;SDS011;1283;47.982;7.834;2022-07-29T00:50:15;11.85;;;5.63;;
2546;SDS011;1283;47.982;7.834;2022-07-29T00:52:42;9.52;;;5.35;;
2546;SDS011;1283;47.982;7.834;2022-07-29T00:55:09;6.13;;;4.50;;
2546;SDS011;1283;47.982;7.834;2022-07-29T00:57:37;7.70;;;5.07;;
2546;SDS011;1283;47.982;7.834;2022-07-29T01:00:05;5.40;;;4.75;;
2546;SDS011;1283;47.982;7.834;2022-07-29T01:02:32;10.98;;;4.95;;
2546;SDS011;1283;47.982;7.834;2022-07-29T01:05:00;6.57;;;4.57;;
2546;SDS011;1283;47.982;7.834;2022-07-29T01:07:27;8.80;;;4.90;;
2546;SDS011;1283;47.982;7.834;2022-07-29T01:09:54;7.15;;;4.57;;
2546;SDS011;1283;47.982;7.834;2022-07-29T01:12:21;10.77;;;4.35;;
2546;SDS011;1283;47.982;7.834;2022-07-29T01:14:49;6.18;;;3.80;;
2546;SDS011;1283;47.982;7.834;2022-07-29T01:17:17;7.22;;;3.83;;
2546;SDS011;1283;47.982;7.834;2022-07-29T01:19:48;10.35;;;4.30;;
2546;SDS011;1283;47.982;7.834;2022-07-29T01:22:24;7.78;;;3.88;;
2546;SDS011;1283;47.982;7.834;2022-07-29T01:25:03;4.97;;;4.30;;
2546;SDS011;1283;47.982;7.834;2022-07-29T01:28:06;6.88;;;4.55;;
2546;SDS011;1283;47.982;7.834;2022-07-29T01:30:41;10.27;;;4.75;;
2546;SDS011;1283;47.982;7.834;2022-07-29T01:33:09;7.88;;;5.57;;
2546;SDS011;1283;47.982;7.834;2022-07-29T01:35:57;10.65;;;5.57;;
2546;SDS011;1283;47.982;7.834;2022-07-29T01:38:25;6.82;;;4.90;;
2546;SDS011;1283;47.982;7.834;2022-07-29T01:40:52;6.15;;;4.82;;
2546;SDS011;1283;47.982;7.834;2022-07-29T01:43:23;13.95;;;6.60;;
2546;SDS011;1283;47.982;7.834;2022-07-29T01:45:59;8.00;;;4.85;;
2546;SDS011;1283;47.982;7.834;2022-07-29T01:48:31;9.35;;;5.18;;
2546;SDS011;1283;47.982;7.834;2022-07-29T01:51:02;6.50;;;4.45;;
2546;SDS011;1283;47.982;7.834;2022-07-29T01:53:32;5.47;;;4.18;;
2546;SDS011;1283;47.982;7.834;2022-07-29T01:56:00;8.57;;;4.15;;
2546;SDS011;1283;47.982;7.834;2022-07-29T01:58:27;8.73;;;5.28;;
2546;SDS011;1283;47.982;7.834;2022-07-29T02:00:55;8.43;;;5.15;;
2546;SDS011;1283;47.982;7.834;2022-07-29T02:03:23;7.75;;;4.93;;
2546;SDS011;1283;47.982;7.834;2022-07-29T02:05:50;7.78;;;5.05;;
2546;SDS011;1283;47.982;7.834;2022-07-29T02:08:17;11.77;;;5.40;;
2546;SDS011;1283;47.982;7.834;2022-07-29T02:10:45;6.05;;;4.85;;
2546;SDS011;1283;47.982;7.834;2022-07-29T02:13:13;8.13;;;4.80;;
2546;SDS011;1283;47.982;7.834;2022-07-29T02:15:42;9.70;;;4.88;;
2546;SDS011;1283;47.982;7.834;2022-07-29T02:18:11;6.45;;;4.70;;
2546;SDS011;1283;47.982;7.834;2022-07-29T02:20:40;5.53;;;4.68;;
2546;SDS011;1283;47.982;7.834;2022-07-29T02:23:09;8.82;;;5.07;;
2546;SDS011;1283;47.982;7.834;2022-07-29T02:25:37;6.40;;;4.90;;
2546;SDS011;1283;47.982;7.834;2022-07-29T02:28:04;8.57;;;5.47;;
2546;SDS011;1283;47.982;7.834;2022-07-29T02:30:31;8.25;;;4.95;;
2546;SDS011;1283;47.982;7.834;2022-07-29T02:32:58;6.60;;;4.68;;
2546;SDS011;1283;47.982;7.834;2022-07-29T02:35:25;8.98;;;4.72;;
2546;SDS011;1283;47.982;7.834;2022-07-29T02:37:53;11.00;;;4.70;;
2546;SDS011;1283;47.982;7.834;2022-07-29T02:40:34;8.48;;;4.30;;
2546;SDS011;1283;47.982;7.834;2022-07-29T02:43:01;6.88;;;4.95;;
2546;SDS011;1283;47.982;7.834;2022-07-29T02:45:28;7.85;;;4.72;;
2546;SDS011;1283;47.982;7.834;2022-07-29T02:47:55;6.07;;;4.65;;
2546;SDS011;1283;47.982;7.834;2022-07-29T02:50:26;9.18;;;4.80;;
2546;SDS011;1283;47.982;7.834;2022-07-29T02:52:58;10.68;;;5.00;;
2546;SDS011;1283;47.982;7.834;2022-07-29T02:55:29;8.38;;;4.57;;
2546;SDS011;1283;47.982;7.834;2022-07-29T02:57:59;6.13;;;4.72;;
2546;SDS011;1283;47.982;7.834;2022-07-29T03:00:28;7.43;;;4.35;;
2546;SDS011;1283;47.982;7.834;2022-07-29T03:02:56;12.85;;;4.72;;
2546;SDS011;1283;47.982;7.834;2022-07-29T03:05:24;9.00;;;4.80;;
2546;SDS011;1283;47.982;7.834;2022-07-29T03:07:52;8.75;;;4.82;;
2546;SDS011;1283;47.982;7.834;2022-07-29T03:10:22;5.93;;;5.00;;
2546;SDS011;1283;47.982;7.834;2022-07-29T03:12:49;11.20;;;4.95;;
2546;SDS011;1283;47.982;7.834;2022-07-29T03:15:16;8.55;;;5.43;;
2546;SDS011;1283;47.982;7.834;2022-07-29T03:17:42;11.63;;;5.57;;
2546;SDS011;1283;47.982;7.834;2022-07-29T03:20:09;10.57;;;6.38;;
2546;SDS011;1283;47.982;7.834;2022-07-29T03:22:38;8.15;;;5.78;;
2546;SDS011;1283;47.982;7.834;2022-07-29T03:25:08;9.25;;;5.68;;
2546;SDS011;1283;47.982;7.834;2022-07-29T03:27:36;12.40;;;5.80;;
2546;SDS011;1283;47.982;7.834;2022-07-29T03:30:03;7.25;;;5.78;;
2546;SDS011;1283;47.982;7.834;2022-07-29T03:32:30;7.57;;;5.55;;
2546;SDS011;1283;47.982;7.834;2022-07-29T03:37:22;7.78;;;4.80;;
2546;SDS011;1283;47.982;7.834;2022-07-29T03:42:15;10.32;;;5.22;;
2546;SDS011;1283;47.982;7.834;2022-07-29T03:44:44;6.35;;;4.72;;
2546;SDS011;1283;47.982;7.834;2022-07-29T03:47:11;8.90;;;5.13;;
2546;SDS011;1283;47.982;7.834;2022-07-29T03:49:38;6.53;;;4.78;;
2546;SDS011;1283;47.982;7.834;2022-07-29T03:52:06;6.07;;;5.28;;
2546;SDS011;1283;47.982;7.834;2022-07-29T03:54:33;7.15;;;4.97;;
2546;SDS011;1283;47.982;7.834;2022-07-29T03:57:00;10.98;;;5.57;;
2546;SDS011;1283;47.982;7.834;2022-07-29T03:59:27;9.40;;;5.50;;
2546;SDS011;1283;47.982;7.834;2022-07-29T04:04:21;7.53;;;5.57;;
2546;SDS011;1283;47.982;7.834;2022-07-29T04:06:48;11.88;;;5.05;;
2546;SDS011;1283;47.982;7.834;2022-07-29T04:11:41;7.57;;;5.07;;
2546;SDS011;1283;47.982;7.834;2022-07-29T04:14:08;12.38;;;5.75;;
2546;SDS011;1283;47.982;7.834;2022-07-29T04:16:34;7.55;;;5.30;;
2546;SDS011;1283;47.982;7.834;2022-07-29T04:21:28;17.35;;;5.28;;
2546;SDS011;1283;47.982;7.834;2022-07-29T04:23:55;5.70;;;5.05;;
2546;SDS011;1283;47.982;7.834;2022-07-29T04:28:47;7.95;;;5.15;;
2546;SDS011;1283;47.982;7.834;2022-07-29T04:31:14;7.43;;;4.88;;
2546;SDS011;1283;47.982;7.834;2022-07-29T04:33:40;8.93;;;5.30;;
2546;SDS011;1283;47.982;7.834;2022-07-29T04:36:08;7.35;;;5.10;;
2546;SDS011;1283;47.982;7.834;2022-07-29T04:38:36;8.85;;;5.20;;
2546;SDS011;1283;47.982;7.834;2022-07-29T04:41:02;9.73;;;5.38;;
2546;SDS011;1283;47.982;7.834;2022-07-29T04:45:55;8.85;;;5.10;;
2546;SDS011;1283;47.982;7.834;2022-07-29T04:48:21;6.78;;;5.00;;
2546;SDS011;1283;47.982;7.834;2022-07-29T04:50:48;6.85;;;4.70;;
2546;SDS011;1283;47.982;7.834;2022-07-29T04:55:42;9.25;;;4.95;;
2546;SDS011;1283;47.982;7.834;2022-07-29T04:58:08;9.38;;;4.75;;
2546;SDS011;1283;47.982;7.834;2022-07-29T05:00:34;12.73;;;5.25;;
2546;SDS011;1283;47.982;7.834;2022-07-29T05:03:01;6.53;;;4.72;;
2546;SDS011;1283;47.982;7.834;2022-07-29T05:05:27;9.75;;;4.60;;
2546;SDS011;1283;47.982;7.834;2022-07-29T05:07:54;7.80;;;4.32;;
2546;SDS011;1283;47.982;7.834;2022-07-29T05:10:21;6.60;;;4.40;;
2546;SDS011;1283;47.982;7.834;2022-07-29T05:12:48;12.48;;;5.32;;
2546;SDS011;1283;47.982;7.834;2022-07-29T05:15:15;9.10;;;4.88;;
2546;SDS011;1283;47.982;7.834;2022-07-29T05:17:42;7.72;;;4.82;;
2546;SDS011;1283;47.982;7.834;2022-07-29T05:20:09;7.30;;;5.00;;
2546;SDS011;1283;47.982;7.834;2022-07-29T05:22:35;13.65;;;4.93;;
2546;SDS011;1283;47.982;7.834;2022-07-29T05:25:02;8.68;;;4.75;;
2546;SDS011;1283;47.982;7.834;2022-07-29T05:27:30;9.50;;;4.80;;
2546;SDS011;1283;47.982;7.834;2022-07-29T05:29:56;8.20;;;4.80;;
2546;SDS011;1283;47.982;7.834;2022-07-29T05:32:23;6.40;;;4.65;;
2546;SDS011;1283;47.982;7.834;2022-07-29T05:37:15;13.15;;;4.68;;
2546;SDS011;1283;47.982;7.834;2022-07-29T05:39:42;8.05;;;4.18;;
2546;SDS011;1283;47.982;7.834;2022-07-29T05:42:09;8.40;;;4.18;;
2546;SDS011;1283;47.982;7.834;2022-07-29T05:44:37;10.63;;;4.32;;
2546;SDS011;1283;47.982;7.834;2022-07-29T05:47:04;8.57;;;3.92;;
2546;SDS011;1283;47.982;7.834;2022-07-29T05:49:31;7.72;;;4.10;;
2546;SDS011;1283;47.982;7.834;2022-07-29T05:51:58;11.15;;;3.90;;
2546;SDS011;1283;47.982;7.834;2022-07-29T05:54:24;5.68;;;3.70;;
2546;SDS011;1283;47.982;7.834;2022-07-29T05:56:50;6.97;;;3.45;;
2546;SDS011;1283;47.982;7.834;2022-07-29T05:59:17;8.88;;;3.17;;
2546;SDS011;1283;47.982;7.834;2022-07-29T06:01:44;4.22;;;3.10;;
2546;SDS011;1283;47.982;7.834;2022-07-29T06:04:11;7.63;;;3.33;;
2546;SDS011;1283;47.982;7.834;2022-07-29T06:06:37;4.75;;;3.20;;
2546;SDS011;1283;47.982;7.834;2022-07-29T06:09:04;10.80;;;3.15;;
2546;SDS011;1283;47.982;7.834;2022-07-29T06:11:30;7.63;;;3.33;;
2546;SDS011;1283;47.982;7.834;2022-07-29T06:13:56;12.18;;;3.67;;
2546;SDS011;1283;47.982;7.834;2022-07-29T06:16:23;5.30;;;3.45;;
2546;SDS011;1283;47.982;7.834;2022-07-29T06:18:51;11.05;;;3.65;;
2546;SDS011;1283;47.982;7.834;2022-07-29T06:21:17;5.18;;;3.25;;
2546;SDS011;1283;47.982;7.834;2022-07-29T06:23:43;4.28;;;3.10;;
2546;SDS011;1283;47.982;7.834;2022-07-29T06:26:10;14.82;;;3.42;;
2546;SDS011;1283;47.982;7.834;2022-07-29T06:28:37;8.25;;;2.97;;
2546;SDS011;1283;47.982;7.834;2022-07-29T06:31:04;5.75;;;3.20;;
2546;SDS011;1283;47.982;7.834;2022-07-29T06:33:31;8.48;;;3.05;;
2546;SDS011;1283;47.982;7.834;2022-07-29T06:35:59;4.60;;;3.00;;
2546;SDS011;1283;47.982;7.834;2022-07-29T06:38:26;12.48;;;3.53;;
2546;SDS011;1283;47.982;7.834;2022-07-29T06:40:52;7.78;;;3.72;;
2546;SDS011;1283;47.982;7.834;2022-07-29T06:43:29;6.90;;;3.47;;
2546;SDS011;1283;47.982;7.834;2022-07-29T06:46:02;14.73;;;4.22;;
2546;SDS011;1283;47.982;7.834;2022-07-29T06:48:30;6.43;;;4.07;;
2546;SDS011;1283;47.982;7.834;2022-07-29T06:50:56;12.38;;;4.43;;
2546;SDS011;1283;47.982;7.834;2022-07-29T06:53:24;7.88;;;3.53;;
2546;SDS011;1283;47.982;7.834;2022-07-29T06:55:51;12.77;;;4.20;;
2546;SDS011;1283;47.982;7.834;2022-07-29T06:58:17;8.48;;;3.42;;
2546;SDS011;1283;47.982;7.834;2022-07-29T07:00:45;14.70;;;4.10;;
2546;SDS011;1283;47.982;7.834;2022-07-29T07:03:12;8.68;;;3.60;;
2546;SDS011;1283;47.982;7.834;2022-07-29T07:05:38;13.45;;;3.90;;
2546;SDS011;1283;47.982;7.834;2022-07-29T07:08:05;11.98;;;4.25;;
2546;SDS011;1283;47.982;7.834;2022-07-29T07:10:33;6.85;;;3.83;;
2546;SDS011;1283;47.982;7.834;2022-07-29T07:13:00;7.78;;;3.80;;
2546;SDS011;1283;47.982;7.834;2022-07-29T07:15:26;4.82;;;3.67;;
2546;SDS011;1283;47.982;7.834;2022-07-29T07:17:53;10.20;;;4.10;;
2546;SDS011;1283;47.982;7.834;2022-07-29T07:20:19;10.10;;;3.88;;
2546;SDS011;1283;47.982;7.834;2022-07-29T07:22:46;10.55;;;3.83;;
2546;SDS011;1283;47.982;7.834;2022-07-29T07:25:12;9.88;;;3.53;;
2546;SDS011;1283;47.982;7.834;2022-07-29T07:27:40;9.75;;;5.07;;
2546;SDS011;1283;47.982;7.834;2022-07-29T07:30:07;8.77;;;4.03;;
2546;SDS011;1283;47.982;7.834;2022-07-29T07:32:34;8.80;;;3.90;;
2546;SDS011;1283;47.982;7.834;2022-07-29T07:35:01;12.48;;;3.60;;
2546;SDS011;1283;47.982;7.834;2022-07-29T07:37:28;12.15;;;4.30;;
2546;SDS011;1283;47.982;7.834;2022-07-29T07:39:54;7.45;;;3.53;;
2546;SDS011;1283;47.982;7.834;2022-07-29T07:42:21;10.35;;;4.65;;
2546;SDS011;1283;47.982;7.834;2022-07-29T07:44:49;14.10;;;3.78;;
2546;SDS011;1283;47.982;7.834;2022-07-29T07:47:15;10.35;;;3.90;;
2546;SDS011;1283;47.982;7.834;2022-07-29T07:49:44;9.20;;;3.80;;
2546;SDS011;1283;47.982;7.834;2022-07-29T07:52:11;6.00;;;3.75;;
2546;SDS011;1283;47.982;7.834;2022-07-29T07:54:37;8.25;;;3.58;;
2546;SDS011;1283;47.982;7.834;2022-07-29T07:57:04;8.45;;;4.20;;
2546;SDS011;1283;47.982;7.834;2022-07-29T07:59:30;12.15;;;4.10;;
2546;SDS011;1283;47.982;7.834;2022-07-29T08:01:58;9.27;;;3.88;;
2546;SDS011;1283;47.982;7.834;2022-07-29T08:04:25;8.35;;;3.65;;
2546;SDS011;1283;47.982;7.834;2022-07-29T08:06:52;10.52;;;3.65;;
2546;SDS011;1283;47.982;7.834;2022-07-29T08:09:19;10.48;;;3.75;;
2546;SDS011;1283;47.982;7.834;2022-07-29T08:11:46;7.53;;;3.50;;
2546;SDS011;1283;47.982;7.834;2022-07-29T08:14:12;14.18;;;4.10;;
2546;SDS011;1283;47.982;7.834;2022-07-29T08:16:39;8.57;;;4.25;;
2546;SDS011;1283;47.982;7.834;2022-07-29T08:19:07;7.93;;;3.42;;
2546;SDS011;1283;47.982;7.834;2022-07-29T08:21:34;19.63;;;4.43;;
2546;SDS011;1283;47.982;7.834;2022-07-29T08:24:00;10.40;;;3.13;;
2546;SDS011;1283;47.982;7.834;2022-07-29T08:26:41;6.47;;;3.50;;
2546;SDS011;1283;47.982;7.834;2022-07-29T08:29:08;6.00;;;3.30;;
2546;SDS011;1283;47.982;7.834;2022-07-29T08:31:35;4.95;;;3.20;;
2546;SDS011;1283;47.982;7.834;2022-07-29T08:34:01;10.75;;;3.63;;
2546;SDS011;1283;47.982;7.834;2022-07-29T08:36:29;6.90;;;3.35;;
2546;SDS011;1283;47.982;7.834;2022-07-29T08:38:56;14.35;;;3.83;;
2546;SDS011;1283;47.982;7.834;2022-07-29T08:41:23;13.20;;;3.60;;
2546;SDS011;1283;47.982;7.834;2022-07-29T08:43:49;7.15;;;2.70;;
2546;SDS011;1283;47.982;7.834;2022-07-29T08:46:16;9.90;;;2.90;;
2546;SDS011;1283;47.982;7.834;2022-07-29T08:48:43;5.25;;;2.58;;
2546;SDS011;1283;47.982;7.834;2022-07-29T08:51:12;12.63;;;3.15;;
2546;SDS011;1283;47.982;7.834;2022-07-29T08:53:42;14.80;;;3.00;;
2546;SDS011;1283;47.982;7.834;2022-07-29T08:56:11;6.45;;;2.90;;
2546;SDS011;1283;47.982;7.834;2022-07-29T08:58:37;10.02;;;3.00;;
2546;SDS011;1283;47.982;7.834;2022-07-29T09:01:04;11.90;;;2.83;;
2546;SDS011;1283;47.982;7.834;2022-07-29T09:03:31;11.40;;;2.40;;
2546;SDS011;1283;47.982;7.834;2022-07-29T09:05:58;4.40;;;2.53;;
2546;SDS011;1283;47.982;7.834;2022-07-29T09:08:24;8.68;;;2.88;;
2546;SDS011;1283;47.982;7.834;2022-07-29T09:10:53;17.67;;;2.70;;
2546;SDS011;1283;47.982;7.834;2022-07-29T09:13:21;11.07;;;2.60;;
2546;SDS011;1283;47.982;7.834;2022-07-29T09:15:47;6.35;;;2.50;;
2546;SDS011;1283;47.982;7.834;2022-07-29T09:21:02;15.85;;;2.80;;
2546;SDS011;1283;47.982;7.834;2022-07-29T09:23:59;9.85;;;2.75;;
2546;SDS011;1283;47.982;7.834;2022-07-29T09:26:32;10.30;;;2.83;;
2546;SDS011;1283;47.982;7.834;2022-07-29T09:28:59;8.38;;;2.60;;
2546;SDS011;1283;47.982;7.834;2022-07-29T09:31:32;6.28;;;2.40;;
2546;SDS011;1283;47.982;7.834;2022-07-29T09:34:00;18.15;;;3.45;;
2546;SDS011;1283;47.982;7.834;2022-07-29T09:36:26;10.85;;;2.80;;
2546;SDS011;1283;47.982;7.834;2022-07-29T09:38:56;13.73;;;2.47;;
2546;SDS011;1283;47.982;7.834;2022-07-29T09:41:24;10.82;;;2.90;;
2546;SDS011;1283;47.982;7.834;2022-07-29T09:43:55;6.93;;;2.60;;
2546;SDS011;1283;47.982;7.834;2022-07-29T09:46:23;7.13;;;2.13;;
2546;SDS011;1283;47.982;7.834;2022-07-29T09:49:08;15.35;;;2.90;;
2546;SDS011;1283;47.982;7.834;2022-07-29T09:51:35;6.22;;;2.55;;
2546;SDS011;1283;47.982;7.834;2022-07-29T09:54:03;8.95;;;2.60;;
2546;SDS011;1283;47.982;7.834;2022-07-29T09:56:47;12.23;;;2.30;;
2546;SDS011;1283;47.982;7.834;2022-07-29T09:59:15;10.57;;;2.70;;
2546;SDS011;1283;47.982;7.834;2022-07-29T10:01:41;14.07;;;2.45;;
2546;SDS011;1283;47.982;7.834;2022-07-29T10:04:08;12.30;;;2.67;;
2546;SDS011;1283;47.982;7.834;2022-07-29T10:06:35;11.93;;;2.78;;
2546;SDS011;1283;47.982;7.834;2022-07-29T10:09:07;8.85;;;2.40;;
2546;SDS011;1283;47.982;7.834;2022-07-29T10:11:34;17.50;;;2.40;;
2546;SDS011;1283;47.982;7.834;2022-07-29T10:14:01;18.15;;;2.80;;
2546;SDS011;1283;47.982;7.834;2022-07-29T10:16:29;9.18;;;2.33;;
2546;SDS011;1283;47.982;7.834;2022-07-29T10:18:58;13.90;;;2.70;;
2546;SDS011;1283;47.982;7.834;2022-07-29T10:21:26;14.85;;;2.80;;
2546;SDS011;1283;47.982;7.834;2022-07-29T10:23:52;5.60;;;2.83;;
2546;SDS011;1283;47.982;7.834;2022-07-29T10:26:19;10.00;;;2.72;;
2546;SDS011;1283;47.982;7.834;2022-07-29T10:28:46;8.20;;;3.05;;
2546;SDS011;1283;47.982;7.834;2022-07-29T10:31:15;8.07;;;2.58;;
2546;SDS011;1283;47.982;7.834;2022-07-29T10:33:51;6.75;;;2.60;;
2546;SDS011;1283;47.982;7.834;2022-07-29T10:36:32;7.47;;;2.70;;
2546;SDS011;1283;47.982;7.834;2022-07-29T10:39:10;7.43;;;2.80;;
2546;SDS011;1283;47.982;7.834;2022-07-29T10:41:52;10.18;;;2.97;;
2546;SDS011;1283;47.982;7.834;2022-07-29T10:44:25;10.27;;;2.75;;
2546;SDS011;1283;47.982;7.834;2022-07-29T10:46:52;6.00;;;3.05;;
2546;SDS011;1283;47.982;7.834;2022-07-29T10:49:21;6.85;;;2.83;;
2546;SDS011;1283;47.982;7.834;2022-07-29T10:51:53;6.53;;;2.80;;
2546;SDS011;1283;47.982;7.834;2022-07-29T10:54:36;15.35;;;2.85;;
2546;SDS011;1283;47.982;7.834;2022-07-29T10:57:14;6.53;;;2.88;;
2546;SDS011;1283;47.982;7.834;2022-07-29T10:59:45;7.35;;;2.63;;
2546;SDS011;1283;47.982;7.834;2022-07-29T11:05:09;4.95;;;2.50;;
2546;SDS011;1283;47.982;7.834;2022-07-29T11:07:38;12.75;;;2.80;;
2546;SDS011;1283;47.982;7.834;2022-07-29T11:12:50;5.50;;;2.70;;
2546;SDS011;1283;47.982;7.834;2022-07-29T11:15:17;12.18;;;2.70;;
2546;SDS011;1283;47.982;7.834;2022-07-29T11:20:33;7.05;;;2.45;;
2546;SDS011;1283;47.982;7.834;2022-07-29T11:23:01;8.57;;;2.83;;
2546;SDS011;1283;47.982;7.834;2022-07-29T11:25:28;10.98;;;2.80;;
2546;SDS011;1283;47.982;7.834;2022-07-29T11:27:54;5.32;;;3.00;;
2546;SDS011;1283;47.982;7.834;2022-07-29T11:30:47;6.35;;;2.83;;
2546;SDS011;1283;47.982;7.834;2022-07-29T11:33:26;9.15;;;2.65;;
2546;SDS011;1283;47.982;7.834;2022-07-29T11:36:11;13.57;;;2.90;;
2546;SDS011;1283;47.982;7.834;2022-07-29T11:38:38;6.72;;;2.58;;
2546;SDS011;1283;47.982;7.834;2022-07-29T11:43:54;13.95;;;3.08;;
2546;SDS011;1283;47.982;7.834;2022-07-29T11:49:09;5.82;;;2.65;;
2546;SDS011;1283;47.982;7.834;2022-07-29T11:51:37;7.28;;;3.42;;
2546;SDS011;1283;47.982;7.834;2022-07-29T11:54:04;15.45;;;2.90;;
2546;SDS011;1283;47.982;7.834;2022-07-29T11:56:31;9.70;;;3.08;;
2546;SDS011;1283;47.982;7.834;2022-07-29T11:59:02;5.47;;;3.08;;
2546;SDS011;1283;47.982;7.834;2022-07-29T12:01:29;6.28;;;3.42;;
2546;SDS011;1283;47.982;7.834;2022-07-29T12:04:02;7.53;;;2.75;;
2546;SDS011;1283;47.982;7.834;2022-07-29T12:06:29;9.18;;;2.88;;
2546;SDS011;1283;47.982;7.834;2022-07-29T12:08:57;6.07;;;2.83;;
2546;SDS011;1283;47.982;7.834;2022-07-29T12:11:23;11.25;;;2.40;;
2546;SDS011;1283;47.982;7.834;2022-07-29T12:13:51;21.27;;;3.10;;
2546;SDS011;1283;47.982;7.834;2022-07-29T12:16:17;7.90;;;3.15;;
2546;SDS011;1283;47.982;7.834;2022-07-29T12:18:54;7.10;;;3.53;;
2546;SDS011;1283;47.982;7.834;2022-07-29T12:21:21;12.35;;;3.13;;
2546;SDS011;1283;47.982;7.834;2022-07-29T12:23:52;5.68;;;2.72;;
2546;SDS011;1283;47.982;7.834;2022-07-29T12:26:20;10.93;;;2.42;;
2546;SDS011;1283;47.982;7.834;2022-07-29T12:28:46;7.43;;;3.20;;
2546;SDS011;1283;47.982;7.834;2022-07-29T12:31:13;5.50;;;2.80;;
2546;SDS011;1283;47.982;7.834;2022-07-29T12:33:40;13.48;;;3.15;;
2546;SDS011;1283;47.982;7.834;2022-07-29T12:36:07;5.75;;;2.53;;
2546;SDS011;1283;47.982;7.834;2022-07-29T12:38:34;8.95;;;3.00;;
2546;SDS011;1283;47.982;7.834;2022-07-29T12:41:00;11.65;;;3.05;;
2546;SDS011;1283;47.982;7.834;2022-07-29T12:43:29;9.70;;;3.08;;
2546;SDS011;1283;47.982;7.834;2022-07-29T12:45:56;7.22;;;2.88;;
2546;SDS011;1283;47.982;7.834;2022-07-29T12:48:32;5.05;;;2.95;;
2546;SDS011;1283;47.982;7.834;2022-07-29T12:51:01;7.18;;;2.72;;
2546;SDS011;1283;47.982;7.834;2022-07-29T12:53:28;5.82;;;2.60;;
2546;SDS011;1283;47.982;7.834;2022-07-29T12:55:56;3.65;;;2.55;;
2546;SDS011;1283;47.982;7.834;2022-07-29T12:58:31;11.07;;;3.47;;
2546;SDS011;1283;47.982;7.834;2022-07-29T13:01:03;6.30;;;2.70;;
2546;SDS011;1283;47.982;7.834;2022-07-29T13:03:46;6.30;;;2.45;;
2546;SDS011;1283;47.982;7.834;2022-07-29T13:06:30;10.95;;;2.75;;
2546;SDS011;1283;47.982;7.834;2022-07-29T13:09:01;6.63;;;2.60;;
2546;SDS011;1283;47.982;7.834;2022-07-29T13:11:33;12.90;;;2.92;;
2546;SDS011;1283;47.982;7.834;2022-07-29T13:14:01;5.85;;;2.30;;
2546;SDS011;1283;47.982;7.834;2022-07-29T13:16:28;12.65;;;2.78;;
2546;SDS011;1283;47.982;7.834;2022-07-29T13:19:08;5.00;;;2.30;;
2546;SDS011;1283;47.982;7.834;2022-07-29T13:21:36;5.15;;;2.35;;
2546;SDS011;1283;47.982;7.834;2022-07-29T13:24:04;4.18;;;2.22;;
2546;SDS011;1283;47.982;7.834;2022-07-29T13:26:31;10.40;;;2.60;;
2546;SDS011;1283;47.982;7.834;2022-07-29T13:28:57;2.67;;;2.10;;
2546;SDS011;1283;47.982;7.834;2022-07-29T13:31:25;7.47;;;2.30;;
2546;SDS011;1283;47.982;7.834;2022-07-29T13:33:52;6.18;;;2.30;;
2546;SDS011;1283;47.982;7.834;2022-07-29T13:36:18;3.63;;;2.15;;
2546;SDS011;1283;47.982;7.834;2022-07-29T13:38:45;12.43;;;2.10;;
2546;SDS011;1283;47.982;7.834;2022-07-29T13:41:11;6.47;;;2.42;;
2546;SDS011;1283;47.982;7.834;2022-07-29T13:43:38;12.38;;;2.30;;
2546;SDS011;1283;47.982;7.834;2022-07-29T13:46:04;4.25;;;2.33;;
2546;SDS011;1283;47.982;7.834;2022-07-29T13:48:32;5.00;;;2.33;;
2546;SDS011;1283;47.982;7.834;2022-07-29T13:50:58;6.25;;;2.38;;
2546;SDS011;1283;47.982;7.834;2022-07-29T13:53:25;4.88;;;2.20;;
2546;SDS011;1283;47.982;7.834;2022-07-29T13:55:52;8.32;;;2.50;;
2546;SDS011;1283;47.982;7.834;2022-07-29T13:58:19;6.20;;;2.30;;
2546;SDS011;1283;47.982;7.834;2022-07-29T14:00:46;8.45;;;2.50;;
2546;SDS011;1283;47.982;7.834;2022-07-29T14:03:12;3.38;;;1.83;;
2546;SDS011;1283;47.982;7.834;2022-07-29T14:05:40;8.73;;;2.20;;
2546;SDS011;1283;47.982;7.834;2022-07-29T14:08:06;10.93;;;2.60;;
2546;SDS011;1283;47.982;7.834;2022-07-29T14:10:33;5.85;;;2.40;;
2546;SDS011;1283;47.982;7.834;2022-07-29T14:12:59;17.00;;;2.80;;
2546;SDS011;1283;47.982;7.834;2022-07-29T14:15:25;6.80;;;2.20;;
2546;SDS011;1283;47.982;7.834;2022-07-29T14:17:52;8.27;;;2.28;;
2546;SDS011;1283;47.982;7.834;2022-07-29T14:20:18;11.98;;;2.45;;
2546;SDS011;1283;47.982;7.834;2022-07-29T14:22:46;2.63;;;2.13;;
2546;SDS011;1283;47.982;7.834;2022-07-29T14:25:13;7.47;;;2.83;;
2546;SDS011;1283;47.982;7.834;2022-07-29T14:27:39;4.28;;;2.00;;
2546;SDS011;1283;47.982;7.834;2022-07-29T14:30:06;4.78;;;2.20;;
2546;SDS011;1283;47.982;7.834;2022-07-29T14:32:34;8.38;;;2.53;;
2546;SDS011;1283;47.982;7.834;2022-07-29T14:35:01;2.67;;;1.80;;
2546;SDS011;1283;47.982;7.834;2022-07-29T14:37:27;10.95;;;2.28;;
2546;SDS011;1283;47.982;7.834;2022-07-29T14:39:55;6.80;;;2.20;;
2546;SDS011;1283;47.982;7.834;2022-07-29T14:42:24;5.13;;;2.53;;
2546;SDS011;1283;47.982;7.834;2022-07-29T14:44:50;5.57;;;1.83;;
2546;SDS011;1283;47.982;7.834;2022-07-29T14:47:17;4.63;;;2.00;;
2546;SDS011;1283;47.982;7.834;2022-07-29T14:49:44;3.53;;;2.22;;
2546;SDS011;1283;47.982;7.834;2022-07-29T14:52:11;16.65;;;2.40;;
2546;SDS011;1283;47.982;7.834;2022-07-29T14:54:37;6.47;;;2.13;;
2546;SDS011;1283;47.982;7.834;2022-07-29T14:57:05;6.50;;;2.20;;
2546;SDS011;1283;47.982;7.834;2022-07-29T14:59:31;7.53;;;1.95;;
2546;SDS011;1283;47.982;7.834;2022-07-29T15:01:57;7.03;;;2.42;;
2546;SDS011;1283;47.982;7.834;2022-07-29T15:04:24;4.03;;;1.77;;
2546;SDS011;1283;47.982;7.834;2022-07-29T15:06:50;7.78;;;1.83;;
2546;SDS011;1283;47.982;7.834;2022-07-29T15:09:17;4.97;;;1.98;;
2546;SDS011;1283;47.982;7.834;2022-07-29T15:11:43;6.20;;;1.67;;
2546;SDS011;1283;47.982;7.834;2022-07-29T15:14:11;14.98;;;1.63;;
2546;SDS011;1283;47.982;7.834;2022-07-29T15:16:38;13.38;;;1.77;;
2546;SDS011;1283;47.982;7.834;2022-07-29T15:19:07;9.93;;;2.63;;
2546;SDS011;1283;47.982;7.834;2022-07-29T15:21:33;13.82;;;3.20;;
2546;SDS011;1283;47.982;7.834;2022-07-29T15:23:59;9.00;;;2.13;;
2546;SDS011;1283;47.982;7.834;2022-07-29T15:26:26;7.47;;;1.90;;
2546;SDS011;1283;47.982;7.834;2022-07-29T15:28:52;5.75;;;2.17;;
2546;SDS011;1283;47.982;7.834;2022-07-29T15:31:21;6.35;;;2.25;;
2546;SDS011;1283;47.982;7.834;2022-07-29T15:33:48;11.63;;;1.73;;
2546;SDS011;1283;47.982;7.834;2022-07-29T15:36:14;7.28;;;1.95;;
2546;SDS011;1283;47.982;7.834;2022-07-29T15:38:41;5.22;;;1.60;;
2546;SDS011;1283;47.982;7.834;2022-07-29T15:41:09;5.20;;;1.95;;
2546;SDS011;1283;47.982;7.834;2022-07-29T15:43:35;5.90;;;1.80;;
2546;SDS011;1283;47.982;7.834;2022-07-29T15:46:02;4.93;;;1.90;;
2546;SDS011;1283;47.982;7.834;2022-07-29T15:48:47;10.20;;;2.05;;
2546;SDS011;1283;47.982;7.834;2022-07-29T15:51:14;10.88;;;1.95;;
2546;SDS011;1283;47.982;7.834;2022-07-29T15:53:40;1.95;;;1.60;;
2546;SDS011;1283;47.982;7.834;2022-07-29T15:56:07;7.53;;;1.90;;
2546;SDS011;1283;47.982;7.834;2022-07-29T15:58:33;7.75;;;1.73;;
2546;SDS011;1283;47.982;7.834;2022-07-29T16:01:00;9.25;;;2.22;;
2546;SDS011;1283;47.982;7.834;2022-07-29T16:03:26;7.38;;;1.42;;